sensor_id;sensor_type;location;lat;lon;timestamp;P1;durP1;ratioP1;P2;durP2;ratioP2
19173;SDS011;9719;49.322;8.536;2022-09-28T00:04:11;0.98;;;0.98;;
19173;SDS011;9719;49.322;8.536;2022-09-28T00:09:13;0.80;;;0.80;;
19173;SDS011;9719;49.322;8.536;2022-09-28T00:14:15;2.10;;;1.10;;
19173;SDS011;9719;49.322;8.536;2022-09-28T00:19:19;1.27;;;1.23;;
19173;SDS011;9719;49.322;8.536;2022-09-28T00:24:21;1.00;;;1.00;;
19173;SDS011;9719;49.322;8.536;2022-09-28T00:29:23;1.60;;;1.20;;
19173;SDS011;9719;49.322;8.536;2022-09-28T00:34:28;2.65;;;1.00;;
19173;SDS011;9719;49.322;8.536;2022-09-28T00:39:31;1.60;;;1.50;;
19173;SDS011;9719;49.322;8.536;2022-09-28T00:44:41;1.95;;;1.83;;
19173;SDS011;9719;49.322;8.536;2022-09-28T00:49:48;1.80;;;1.65;;
19173;SDS011;9719;49.322;8.536;2022-09-28T00:54:54;1.67;;;1.35;;
19173;SDS011;9719;49.322;8.536;2022-09-28T01:00:00;1.95;;;1.85;;
19173;SDS011;9719;49.322;8.536;2022-09-28T01:05:06;1.55;;;1.45;;
19173;SDS011;9719;49.322;8.536;2022-09-28T01:10:10;1.98;;;1.30;;
19173;SDS011;9719;49.322;8.536;2022-09-28T01:15:13;1.30;;;1.15;;
19173;SDS011;9719;49.322;8.536;2022-09-28T01:25:51;2.85;;;1.52;;
19173;SDS011;9719;49.322;8.536;2022-09-28T01:30:59;1.30;;;1.20;;
19173;SDS011;9719;49.322;8.536;2022-09-28T01:36:06;3.50;;;1.60;;
19173;SDS011;9719;49.322;8.536;2022-09-28T01:41:12;2.00;;;1.30;;
19173;SDS011;9719;49.322;8.536;2022-09-28T01:46:19;2.55;;;1.33;;
19173;SDS011;9719;49.322;8.536;2022-09-28T01:51:24;1.15;;;1.02;;
19173;SDS011;9719;49.322;8.536;2022-09-28T01:56:33;3.03;;;1.10;;
19173;SDS011;9719;49.322;8.536;2022-09-28T02:01:42;1.63;;;1.48;;
19173;SDS011;9719;49.322;8.536;2022-09-28T02:06:48;1.20;;;1.10;;
19173;SDS011;9719;49.322;8.536;2022-09-28T02:11:56;1.23;;;1.00;;
19173;SDS011;9719;49.322;8.536;2022-09-28T02:17:03;1.23;;;1.05;;
19173;SDS011;9719;49.322;8.536;2022-09-28T02:22:07;3.25;;;0.82;;
19173;SDS011;9719;49.322;8.536;2022-09-28T02:27:25;1.67;;;1.00;;
19173;SDS011;9719;49.322;8.536;2022-09-28T02:32:36;1.05;;;1.05;;
19173;SDS011;9719;49.322;8.536;2022-09-28T02:37:41;2.67;;;1.85;;
19173;SDS011;9719;49.322;8.536;2022-09-28T02:42:48;1.02;;;1.02;;
19173;SDS011;9719;49.322;8.536;2022-09-28T02:48:05;2.10;;;1.90;;
19173;SDS011;9719;49.322;8.536;2022-09-28T02:53:21;3.38;;;2.58;;
19173;SDS011;9719;49.322;8.536;2022-09-28T02:58:34;1.00;;;1.00;;
19173;SDS011;9719;49.322;8.536;2022-09-28T03:03:45;1.23;;;0.80;;
19173;SDS011;9719;49.322;8.536;2022-09-28T03:08:53;0.88;;;0.80;;
19173;SDS011;9719;49.322;8.536;2022-09-28T03:14:00;1.50;;;1.40;;
19173;SDS011;9719;49.322;8.536;2022-09-28T03:19:04;1.55;;;0.90;;
19173;SDS011;9719;49.322;8.536;2022-09-28T03:24:06;1.50;;;1.02;;
19173;SDS011;9719;49.322;8.536;2022-09-28T03:29:10;1.45;;;1.20;;
19173;SDS011;9719;49.322;8.536;2022-09-28T03:34:13;2.83;;;1.90;;
19173;SDS011;9719;49.322;8.536;2022-09-28T03:39:15;2.30;;;1.15;;
19173;SDS011;9719;49.322;8.536;2022-09-28T03:44:17;1.58;;;1.30;;
19173;SDS011;9719;49.322;8.536;2022-09-28T03:49:21;0.85;;;0.85;;
19173;SDS011;9719;49.322;8.536;2022-09-28T03:54:23;1.33;;;1.23;;
19173;SDS011;9719;49.322;8.536;2022-09-28T03:59:25;1.58;;;1.40;;
19173;SDS011;9719;49.322;8.536;2022-09-28T04:04:28;1.08;;;0.98;;
19173;SDS011;9719;49.322;8.536;2022-09-28T04:09:30;0.90;;;0.90;;
19173;SDS011;9719;49.322;8.536;2022-09-28T04:14:32;1.70;;;1.13;;
19173;SDS011;9719;49.322;8.536;2022-09-28T04:19:36;1.40;;;1.30;;
19173;SDS011;9719;49.322;8.536;2022-09-28T04:24:38;2.22;;;2.00;;
19173;SDS011;9719;49.322;8.536;2022-09-28T04:29:42;1.35;;;1.25;;
19173;SDS011;9719;49.322;8.536;2022-09-28T04:34:45;1.50;;;1.40;;
19173;SDS011;9719;49.322;8.536;2022-09-28T04:39:47;1.70;;;1.60;;
19173;SDS011;9719;49.322;8.536;2022-09-28T04:44:49;1.65;;;1.15;;
19173;SDS011;9719;49.322;8.536;2022-09-28T04:49:53;3.08;;;1.40;;
19173;SDS011;9719;49.322;8.536;2022-09-28T04:54:55;1.55;;;1.27;;
19173;SDS011;9719;49.322;8.536;2022-09-28T04:59:56;4.18;;;1.58;;
19173;SDS011;9719;49.322;8.536;2022-09-28T05:05:00;1.70;;;1.60;;
19173;SDS011;9719;49.322;8.536;2022-09-28T05:10:02;3.85;;;1.92;;
19173;SDS011;9719;49.322;8.536;2022-09-28T05:15:05;8.27;;;3.05;;
19173;SDS011;9719;49.322;8.536;2022-09-28T05:20:09;3.72;;;2.13;;
19173;SDS011;9719;49.322;8.536;2022-09-28T05:25:11;3.72;;;1.65;;
19173;SDS011;9719;49.322;8.536;2022-09-28T05:30:13;2.42;;;1.80;;
19173;SDS011;9719;49.322;8.536;2022-09-28T05:35:16;3.38;;;2.00;;
19173;SDS011;9719;49.322;8.536;2022-09-28T05:40:18;2.10;;;1.90;;
19173;SDS011;9719;49.322;8.536;2022-09-28T05:45:20;2.17;;;1.98;;
19173;SDS011;9719;49.322;8.536;2022-09-28T05:50:24;1.95;;;1.70;;
19173;SDS011;9719;49.322;8.536;2022-09-28T05:55:26;2.92;;;2.33;;
19173;SDS011;9719;49.322;8.536;2022-09-28T06:00:29;3.45;;;2.28;;
19173;SDS011;9719;49.322;8.536;2022-09-28T06:05:34;2.45;;;2.20;;
19173;SDS011;9719;49.322;8.536;2022-09-28T06:10:38;3.72;;;2.30;;
19173;SDS011;9719;49.322;8.536;2022-09-28T06:15:41;3.47;;;2.33;;
19173;SDS011;9719;49.322;8.536;2022-09-28T06:20:46;2.95;;;1.98;;
19173;SDS011;9719;49.322;8.536;2022-09-28T06:25:48;7.32;;;3.30;;
19173;SDS011;9719;49.322;8.536;2022-09-28T06:30:50;4.93;;;3.33;;
19173;SDS011;9719;49.322;8.536;2022-09-28T06:35:54;4.15;;;3.00;;
19173;SDS011;9719;49.322;8.536;2022-09-28T06:40:58;3.80;;;2.78;;
19173;SDS011;9719;49.322;8.536;2022-09-28T06:46:00;6.53;;;3.50;;
19173;SDS011;9719;49.322;8.536;2022-09-28T06:51:04;2.22;;;2.03;;
19173;SDS011;9719;49.322;8.536;2022-09-28T06:56:07;5.53;;;2.63;;
19173;SDS011;9719;49.322;8.536;2022-09-28T07:01:09;3.38;;;2.20;;
19173;SDS011;9719;49.322;8.536;2022-09-28T07:06:13;3.97;;;2.30;;
19173;SDS011;9719;49.322;8.536;2022-09-28T07:11:15;6.22;;;3.88;;
19173;SDS011;9719;49.322;8.536;2022-09-28T07:16:19;6.80;;;3.42;;
19173;SDS011;9719;49.322;8.536;2022-09-28T07:21:22;3.88;;;2.78;;
19173;SDS011;9719;49.322;8.536;2022-09-28T07:26:24;6.25;;;2.65;;
19173;SDS011;9719;49.322;8.536;2022-09-28T07:31:26;3.50;;;3.15;;
19173;SDS011;9719;49.322;8.536;2022-09-28T07:36:30;2.88;;;2.60;;
19173;SDS011;9719;49.322;8.536;2022-09-28T07:41:34;5.30;;;2.85;;
19173;SDS011;9719;49.322;8.536;2022-09-28T07:46:37;3.95;;;2.55;;
19173;SDS011;9719;49.322;8.536;2022-09-28T07:51:41;6.72;;;3.03;;
19173;SDS011;9719;49.322;8.536;2022-09-28T07:56:44;3.03;;;2.20;;
19173;SDS011;9719;49.322;8.536;2022-09-28T08:01:46;5.20;;;2.33;;
19173;SDS011;9719;49.322;8.536;2022-09-28T08:06:50;4.30;;;2.47;;
19173;SDS011;9719;49.322;8.536;2022-09-28T08:11:52;2.97;;;2.00;;
19173;SDS011;9719;49.322;8.536;2022-09-28T08:16:54;4.45;;;2.25;;
19173;SDS011;9719;49.322;8.536;2022-09-28T08:21:58;3.88;;;1.70;;
19173;SDS011;9719;49.322;8.536;2022-09-28T08:27:00;3.67;;;2.78;;
19173;SDS011;9719;49.322;8.536;2022-09-28T08:32:02;3.67;;;1.50;;
19173;SDS011;9719;49.322;8.536;2022-09-28T08:37:09;2.47;;;2.05;;
19173;SDS011;9719;49.322;8.536;2022-09-28T08:42:14;2.72;;;1.73;;
19173;SDS011;9719;49.322;8.536;2022-09-28T08:47:32;3.75;;;1.55;;
19173;SDS011;9719;49.322;8.536;2022-09-28T08:52:58;2.45;;;1.38;;
19173;SDS011;9719;49.322;8.536;2022-09-28T08:58:05;1.90;;;1.00;;
19173;SDS011;9719;49.322;8.536;2022-09-28T09:03:13;2.08;;;1.33;;
19173;SDS011;9719;49.322;8.536;2022-09-28T09:08:23;2.05;;;1.40;;
19173;SDS011;9719;49.322;8.536;2022-09-28T09:19:04;3.78;;;1.25;;
19173;SDS011;9719;49.322;8.536;2022-09-28T09:24:20;1.58;;;1.13;;
19173;SDS011;9719;49.322;8.536;2022-09-28T09:29:33;1.23;;;1.20;;
19173;SDS011;9719;49.322;8.536;2022-09-28T09:34:58;2.83;;;1.08;;
19173;SDS011;9719;49.322;8.536;2022-09-28T09:40:16;2.20;;;1.20;;
19173;SDS011;9719;49.322;8.536;2022-09-28T09:45:30;2.10;;;0.98;;
19173;SDS011;9719;49.322;8.536;2022-09-28T09:50:44;1.00;;;0.90;;
19173;SDS011;9719;49.322;8.536;2022-09-28T09:55:51;1.17;;;1.05;;
19173;SDS011;9719;49.322;8.536;2022-09-28T10:00:58;2.15;;;0.90;;
19173;SDS011;9719;49.322;8.536;2022-09-28T10:06:07;1.38;;;1.00;;
19173;SDS011;9719;49.322;8.536;2022-09-28T10:11:17;1.48;;;0.80;;
19173;SDS011;9719;49.322;8.536;2022-09-28T10:16:23;2.08;;;1.08;;
19173;SDS011;9719;49.322;8.536;2022-09-28T10:21:26;2.13;;;1.30;;
19173;SDS011;9719;49.322;8.536;2022-09-28T10:26:31;1.02;;;1.02;;
19173;SDS011;9719;49.322;8.536;2022-09-28T10:31:37;2.83;;;1.17;;
19173;SDS011;9719;49.322;8.536;2022-09-28T10:36:48;1.75;;;1.15;;
19173;SDS011;9719;49.322;8.536;2022-09-28T10:41:55;1.58;;;1.20;;
19173;SDS011;9719;49.322;8.536;2022-09-28T10:46:59;1.83;;;1.20;;
19173;SDS011;9719;49.322;8.536;2022-09-28T10:52:03;1.13;;;0.95;;
19173;SDS011;9719;49.322;8.536;2022-09-28T10:57:23;1.30;;;1.00;;
19173;SDS011;9719;49.322;8.536;2022-09-28T11:02:29;1.08;;;1.08;;
19173;SDS011;9719;49.322;8.536;2022-09-28T11:07:33;2.53;;;1.40;;
19173;SDS011;9719;49.322;8.536;2022-09-28T11:12:47;54.30;;;5.70;;
19173;SDS011;9719;49.322;8.536;2022-09-28T11:17:51;0.65;;;0.65;;
19173;SDS011;9719;49.322;8.536;2022-09-28T11:22:53;0.68;;;0.68;;
19173;SDS011;9719;49.322;8.536;2022-09-28T11:27:58;0.82;;;0.82;;
19173;SDS011;9719;49.322;8.536;2022-09-28T11:33:04;2.80;;;1.00;;
19173;SDS011;9719;49.322;8.536;2022-09-28T11:38:14;3.22;;;1.40;;
19173;SDS011;9719;49.322;8.536;2022-09-28T11:43:35;0.70;;;0.68;;
19173;SDS011;9719;49.322;8.536;2022-09-28T11:48:53;1.55;;;1.20;;
19173;SDS011;9719;49.322;8.536;2022-09-28T11:53:59;2.28;;;0.90;;
19173;SDS011;9719;49.322;8.536;2022-09-28T11:59:15;0.93;;;0.93;;
19173;SDS011;9719;49.322;8.536;2022-09-28T12:04:25;1.65;;;1.10;;
19173;SDS011;9719;49.322;8.536;2022-09-28T12:09:33;3.55;;;0.80;;
19173;SDS011;9719;49.322;8.536;2022-09-28T12:14:39;1.38;;;0.73;;
19173;SDS011;9719;49.322;8.536;2022-09-28T12:19:43;1.50;;;0.90;;
19173;SDS011;9719;49.322;8.536;2022-09-28T12:24:49;3.15;;;1.35;;
19173;SDS011;9719;49.322;8.536;2022-09-28T12:29:56;2.10;;;1.20;;
19173;SDS011;9719;49.322;8.536;2022-09-28T12:35:09;0.70;;;0.70;;
19173;SDS011;9719;49.322;8.536;2022-09-28T12:40:33;1.15;;;0.70;;
19173;SDS011;9719;49.322;8.536;2022-09-28T12:45:46;2.00;;;1.00;;
19173;SDS011;9719;49.322;8.536;2022-09-28T12:50:59;2.60;;;0.60;;
19173;SDS011;9719;49.322;8.536;2022-09-28T12:56:12;2.22;;;1.00;;
19173;SDS011;9719;49.322;8.536;2022-09-28T13:01:30;0.65;;;0.65;;
19173;SDS011;9719;49.322;8.536;2022-09-28T13:06:49;2.70;;;0.80;;
19173;SDS011;9719;49.322;8.536;2022-09-28T13:12:00;0.90;;;0.88;;
19173;SDS011;9719;49.322;8.536;2022-09-28T13:17:15;0.80;;;0.80;;
19173;SDS011;9719;49.322;8.536;2022-09-28T13:22:28;1.80;;;0.88;;
19173;SDS011;9719;49.322;8.536;2022-09-28T13:27:37;1.88;;;1.10;;
19173;SDS011;9719;49.322;8.536;2022-09-28T13:32:45;0.70;;;0.70;;
19173;SDS011;9719;49.322;8.536;2022-09-28T13:43:26;0.75;;;0.75;;
19173;SDS011;9719;49.322;8.536;2022-09-28T13:48:36;1.17;;;0.88;;
19173;SDS011;9719;49.322;8.536;2022-09-28T13:53:56;2.25;;;0.85;;
19173;SDS011;9719;49.322;8.536;2022-09-28T13:59:14;1.30;;;0.80;;
19173;SDS011;9719;49.322;8.536;2022-09-28T14:04:23;1.25;;;0.95;;
19173;SDS011;9719;49.322;8.536;2022-09-28T14:09:47;2.97;;;1.15;;
19173;SDS011;9719;49.322;8.536;2022-09-28T14:15:15;0.77;;;0.73;;
19173;SDS011;9719;49.322;8.536;2022-09-28T14:20:48;2.17;;;1.27;;
19173;SDS011;9719;49.322;8.536;2022-09-28T14:25:59;0.88;;;0.80;;
19173;SDS011;9719;49.322;8.536;2022-09-28T14:31:22;1.17;;;0.73;;
19173;SDS011;9719;49.322;8.536;2022-09-28T14:36:27;1.75;;;0.85;;
19173;SDS011;9719;49.322;8.536;2022-09-28T14:42:08;0.70;;;0.70;;
19173;SDS011;9719;49.322;8.536;2022-09-28T14:47:31;1.10;;;1.00;;
19173;SDS011;9719;49.322;8.536;2022-09-28T14:52:37;0.80;;;0.80;;
19173;SDS011;9719;49.322;8.536;2022-09-28T14:57:40;1.02;;;0.80;;
19173;SDS011;9719;49.322;8.536;2022-09-28T15:02:46;3.17;;;1.85;;
19173;SDS011;9719;49.322;8.536;2022-09-28T15:07:51;0.80;;;0.80;;
19173;SDS011;9719;49.322;8.536;2022-09-28T15:12:54;1.23;;;1.15;;
19173;SDS011;9719;49.322;8.536;2022-09-28T15:18:01;1.05;;;0.90;;
19173;SDS011;9719;49.322;8.536;2022-09-28T15:23:23;2.33;;;1.25;;
19173;SDS011;9719;49.322;8.536;2022-09-28T15:28:27;1.48;;;0.80;;
19173;SDS011;9719;49.322;8.536;2022-09-28T15:33:31;0.98;;;0.80;;
19173;SDS011;9719;49.322;8.536;2022-09-28T15:38:53;0.80;;;0.80;;
19173;SDS011;9719;49.322;8.536;2022-09-28T15:44:04;2.72;;;1.27;;
19173;SDS011;9719;49.322;8.536;2022-09-28T15:49:23;2.13;;;0.98;;
19173;SDS011;9719;49.322;8.536;2022-09-28T15:54:30;1.95;;;0.70;;
19173;SDS011;9719;49.322;8.536;2022-09-28T15:59:38;1.42;;;0.80;;
19173;SDS011;9719;49.322;8.536;2022-09-28T16:04:45;1.80;;;1.23;;
19173;SDS011;9719;49.322;8.536;2022-09-28T16:09:54;1.65;;;1.17;;
19173;SDS011;9719;49.322;8.536;2022-09-28T16:15:00;0.82;;;0.82;;
19173;SDS011;9719;49.322;8.536;2022-09-28T16:20:17;1.50;;;1.20;;
19173;SDS011;9719;49.322;8.536;2022-09-28T16:25:23;2.97;;;1.30;;
19173;SDS011;9719;49.322;8.536;2022-09-28T16:30:28;1.42;;;1.20;;
19173;SDS011;9719;49.322;8.536;2022-09-28T16:35:47;3.42;;;2.35;;
19173;SDS011;9719;49.322;8.536;2022-09-28T16:40:50;2.08;;;1.42;;
19173;SDS011;9719;49.322;8.536;2022-09-28T16:45:53;2.35;;;1.15;;
19173;SDS011;9719;49.322;8.536;2022-09-28T16:50:58;2.35;;;1.67;;
19173;SDS011;9719;49.322;8.536;2022-09-28T16:56:00;2.00;;;1.65;;
19173;SDS011;9719;49.322;8.536;2022-09-28T17:01:04;1.30;;;1.17;;
19173;SDS011;9719;49.322;8.536;2022-09-28T17:06:09;6.95;;;2.28;;
19173;SDS011;9719;49.322;8.536;2022-09-28T17:11:13;1.80;;;1.00;;
19173;SDS011;9719;49.322;8.536;2022-09-28T17:16:16;1.98;;;1.88;;
19173;SDS011;9719;49.322;8.536;2022-09-28T17:21:22;5.25;;;1.88;;
19173;SDS011;9719;49.322;8.536;2022-09-28T17:26:25;2.28;;;1.80;;
19173;SDS011;9719;49.322;8.536;2022-09-28T17:31:30;2.67;;;1.92;;
19173;SDS011;9719;49.322;8.536;2022-09-28T17:36:33;7.78;;;3.08;;
19173;SDS011;9719;49.322;8.536;2022-09-28T17:41:35;1.60;;;1.48;;
19173;SDS011;9719;49.322;8.536;2022-09-28T17:46:40;1.75;;;1.42;;
19173;SDS011;9719;49.322;8.536;2022-09-28T17:51:46;3.95;;;2.00;;
19173;SDS011;9719;49.322;8.536;2022-09-28T17:56:49;2.72;;;1.92;;
19173;SDS011;9719;49.322;8.536;2022-09-28T18:01:51;2.92;;;2.50;;
19173;SDS011;9719;49.322;8.536;2022-09-28T18:06:54;2.72;;;2.13;;
19173;SDS011;9719;49.322;8.536;2022-09-28T18:11:57;2.25;;;2.08;;
19173;SDS011;9719;49.322;8.536;2022-09-28T18:17:01;2.35;;;1.50;;
19173;SDS011;9719;49.322;8.536;2022-09-28T18:22:04;1.92;;;1.83;;
19173;SDS011;9719;49.322;8.536;2022-09-28T18:27:06;2.67;;;2.40;;
19173;SDS011;9719;49.322;8.536;2022-09-28T18:32:08;2.00;;;1.77;;
19173;SDS011;9719;49.322;8.536;2022-09-28T18:37:12;3.28;;;2.10;;
19173;SDS011;9719;49.322;8.536;2022-09-28T18:42:14;2.53;;;1.95;;
19173;SDS011;9719;49.322;8.536;2022-09-28T18:47:16;2.80;;;2.60;;
19173;SDS011;9719;49.322;8.536;2022-09-28T18:52:20;2.92;;;2.58;;
19173;SDS011;9719;49.322;8.536;2022-09-28T18:57:22;3.17;;;2.95;;
19173;SDS011;9719;49.322;8.536;2022-09-28T19:02:24;10.18;;;3.85;;
19173;SDS011;9719;49.322;8.536;2022-09-28T19:07:27;3.22;;;2.60;;
19173;SDS011;9719;49.322;8.536;2022-09-28T19:12:31;5.95;;;2.83;;
19173;SDS011;9719;49.322;8.536;2022-09-28T19:17:33;2.80;;;2.60;;
19173;SDS011;9719;49.322;8.536;2022-09-28T19:22:36;2.78;;;2.58;;
19173;SDS011;9719;49.322;8.536;2022-09-28T19:27:38;6.35;;;3.58;;
19173;SDS011;9719;49.322;8.536;2022-09-28T19:32:40;5.47;;;3.50;;
19173;SDS011;9719;49.322;8.536;2022-09-28T19:37:44;3.70;;;2.70;;
19173;SDS011;9719;49.322;8.536;2022-09-28T19:42:46;4.13;;;3.35;;
19173;SDS011;9719;49.322;8.536;2022-09-28T19:47:48;4.30;;;2.30;;
19173;SDS011;9719;49.322;8.536;2022-09-28T19:52:52;4.15;;;2.63;;
19173;SDS011;9719;49.322;8.536;2022-09-28T19:57:54;3.28;;;2.63;;
19173;SDS011;9719;49.322;8.536;2022-09-28T20:02:56;4.80;;;2.72;;
19173;SDS011;9719;49.322;8.536;2022-09-28T20:08:00;3.25;;;2.58;;
19173;SDS011;9719;49.322;8.536;2022-09-28T20:13:02;4.10;;;3.67;;
19173;SDS011;9719;49.322;8.536;2022-09-28T20:18:04;3.72;;;2.60;;
19173;SDS011;9719;49.322;8.536;2022-09-28T20:23:08;3.90;;;2.88;;
19173;SDS011;9719;49.322;8.536;2022-09-28T20:28:11;2.83;;;2.63;;
19173;SDS011;9719;49.322;8.536;2022-09-28T20:33:13;4.10;;;3.42;;
19173;SDS011;9719;49.322;8.536;2022-09-28T20:38:16;7.60;;;3.25;;
19173;SDS011;9719;49.322;8.536;2022-09-28T20:43:18;3.47;;;3.13;;
19173;SDS011;9719;49.322;8.536;2022-09-28T20:48:20;3.00;;;2.78;;
19173;SDS011;9719;49.322;8.536;2022-09-28T20:53:25;2.95;;;2.20;;
19173;SDS011;9719;49.322;8.536;2022-09-28T20:58:27;2.80;;;2.60;;
19173;SDS011;9719;49.322;8.536;2022-09-28T21:03:30;3.00;;;2.30;;
19173;SDS011;9719;49.322;8.536;2022-09-28T21:08:33;2.83;;;2.40;;
19173;SDS011;9719;49.322;8.536;2022-09-28T21:13:35;2.75;;;2.42;;
19173;SDS011;9719;49.322;8.536;2022-09-28T21:18:41;3.58;;;2.83;;
19173;SDS011;9719;49.322;8.536;2022-09-28T21:23:45;3.10;;;2.80;;
19173;SDS011;9719;49.322;8.536;2022-09-28T21:28:48;2.28;;;2.08;;
19173;SDS011;9719;49.322;8.536;2022-09-28T21:33:52;2.63;;;2.10;;
19173;SDS011;9719;49.322;8.536;2022-09-28T21:38:55;3.13;;;2.13;;
19173;SDS011;9719;49.322;8.536;2022-09-28T21:43:57;3.33;;;2.10;;
19173;SDS011;9719;49.322;8.536;2022-09-28T21:49:00;3.58;;;2.42;;
19173;SDS011;9719;49.322;8.536;2022-09-28T21:54:04;4.05;;;3.40;;
19173;SDS011;9719;49.322;8.536;2022-09-28T21:59:06;1.80;;;1.70;;
19173;SDS011;9719;49.322;8.536;2022-09-28T22:04:08;3.55;;;2.92;;
19173;SDS011;9719;49.322;8.536;2022-09-28T22:09:12;2.60;;;2.40;;
19173;SDS011;9719;49.322;8.536;2022-09-28T22:14:14;2.83;;;2.47;;
19173;SDS011;9719;49.322;8.536;2022-09-28T22:19:16;6.18;;;3.10;;
19173;SDS011;9719;49.322;8.536;2022-09-28T22:24:19;2.13;;;2.03;;
19173;SDS011;9719;49.322;8.536;2022-09-28T22:29:21;3.25;;;3.05;;
19173;SDS011;9719;49.322;8.536;2022-09-28T22:34:23;3.17;;;2.40;;
19173;SDS011;9719;49.322;8.536;2022-09-28T22:39:30;3.67;;;3.25;;
19173;SDS011;9719;49.322;8.536;2022-09-28T22:44:32;3.38;;;3.08;;
19173;SDS011;9719;49.322;8.536;2022-09-28T22:49:36;3.70;;;2.78;;
19173;SDS011;9719;49.322;8.536;2022-09-28T22:54:40;4.00;;;3.70;;
19173;SDS011;9719;49.322;8.536;2022-09-28T22:59:42;4.13;;;2.80;;
19173;SDS011;9719;49.322;8.536;2022-09-28T23:04:44;3.63;;;3.33;;
19173;SDS011;9719;49.322;8.536;2022-09-28T23:09:47;3.28;;;2.97;;
19173;SDS011;9719;49.322;8.536;2022-09-28T23:14:49;3.42;;;3.13;;
19173;SDS011;9719;49.322;8.536;2022-09-28T23:19:51;4.38;;;4.00;;
19173;SDS011;9719;49.322;8.536;2022-09-28T23:24:55;4.43;;;3.58;;
19173;SDS011;9719;49.322;8.536;2022-09-28T23:29:57;3.42;;;3.13;;
19173;SDS011;9719;49.322;8.536;2022-09-28T23:35:00;2.72;;;2.53;;
19173;SDS011;9719;49.322;8.536;2022-09-28T23:40:04;2.85;;;2.45;;
19173;SDS011;9719;49.322;8.536;2022-09-28T23:45:07;12.32;;;5.63;;
19173;SDS011;9719;49.322;8.536;2022-09-28T23:50:10;4.30;;;3.47;;
19173;SDS011;9719;49.322;8.536;2022-09-28T23:55:13;4.03;;;2.70;;
